Time;durP1;ratioP1;P1;durP2;ratioP2;P2;SDS_P1;SDS_P2;PMS_P1;PMS_P2;Temp;Humidity;BMP_temperature;BMP_pressure;BME280_temperature;BME280_humidity;BME280_pressure;Samples;Min_cycle;Max_cycle;Signal;HPM_P1;HPM_P2
2021/10/14 00:01:33;;;;;;;16.95;13.02;;;10.60;87.30;;;;;;4989635;28;20030;-51
2021/10/14 00:03:59;;;;;;;15.88;12.48;;;10.70;87.40;;;;;;4993552;28;20022;-50
2021/10/14 00:06:25;;;;;;;14.10;11.15;;;10.70;87.40;;;;;;4995702;28;20033;-50
2021/10/14 00:08:50;;;;;;;15.93;12.15;;;10.70;87.50;;;;;;4995343;28;20034;-51
2021/10/14 00:11:16;;;;;;;13.88;11.68;;;10.70;87.50;;;;;;4995194;28;20093;-51
2021/10/14 00:13:42;;;;;;;15.00;12.05;;;10.70;87.50;;;;;;4994465;28;20038;-53
2021/10/14 00:16:07;;;;;;;15.45;12.65;;;10.70;87.30;;;;;;4994656;28;20108;-50
2021/10/14 00:18:33;;;;;;;14.52;11.70;;;10.70;87.40;;;;;;4995324;28;20038;-51
2021/10/14 00:20:59;;;;;;;15.13;11.30;;;10.70;87.20;;;;;;4995302;28;20032;-50
2021/10/14 00:23:25;;;;;;;16.98;12.10;;;10.70;87.30;;;;;;4995433;28;20077;-51
2021/10/14 00:25:51;;;;;;;14.00;11.82;;;10.70;87.30;;;;;;4991427;28;20057;-51
2021/10/14 00:28:16;;;;;;;14.68;11.38;;;10.70;87.30;;;;;;4994880;28;20026;-51
2021/10/14 00:30:42;;;;;;;14.73;11.70;;;10.70;87.20;;;;;;4995331;28;20030;-51
2021/10/14 00:33:08;;;;;;;15.38;11.55;;;10.70;87.20;;;;;;4995084;28;20046;-50
2021/10/14 00:35:33;;;;;;;15.65;11.32;;;10.70;87.20;;;;;;4995142;28;20058;-50
2021/10/14 00:37:59;;;;;;;15.23;11.10;;;10.70;87.20;;;;;;4995377;28;20022;-50
2021/10/14 00:40:25;;;;;;;13.45;11.75;;;10.70;87.00;;;;;;4990312;28;20114;-50
2021/10/14 00:42:52;;;;;;;14.85;11.27;;;10.70;87.10;;;;;;4994472;28;20034;-50
2021/10/14 00:45:17;;;;;;;12.88;11.48;;;10.70;87.00;;;;;;4994959;28;20076;-51
2021/10/14 00:47:43;;;;;;;14.27;11.20;;;10.70;87.00;;;;;;4994469;28;20117;-53
2021/10/14 00:50:09;;;;;;;12.65;10.73;;;10.70;87.00;;;;;;4994830;28;20069;-51
2021/10/14 00:52:39;;;;;;;13.32;10.80;;;10.70;87.10;;;;;;4994380;28;20187;-51
2021/10/14 00:55:05;;;;;;;14.88;11.02;;;10.70;87.00;;;;;;4979054;28;20027;-52
2021/10/14 00:57:32;;;;;;;14.95;11.70;;;10.70;87.00;;;;;;4989192;28;20104;-51
2021/10/14 00:59:59;;;;;;;15.02;11.00;;;10.70;86.90;;;;;;4994190;28;20034;-51
2021/10/14 01:02:25;;;;;;;12.02;10.23;;;10.70;87.00;;;;;;4994869;28;20581;-51
2021/10/14 01:04:55;;;;;;;12.90;11.02;;;10.70;87.00;;;;;;4993168;28;20069;-51
2021/10/14 01:07:22;;;;;;;14.07;11.20;;;10.70;87.20;;;;;;4994690;28;20022;-51
2021/10/14 01:09:48;;;;;;;12.80;10.65;;;10.70;87.30;;;;;;4994237;28;20466;-51
2021/10/14 01:12:14;;;;;;;15.40;12.30;;;10.70;87.30;;;;;;4994651;28;20022;-51
2021/10/14 01:14:40;;;;;;;14.88;11.50;;;10.70;87.10;;;;;;4994266;28;20041;-51
2021/10/14 01:17:06;;;;;;;13.98;11.80;;;10.70;87.20;;;;;;4994166;28;20027;-51
2021/10/14 01:19:32;;;;;;;13.95;11.40;;;10.70;87.00;;;;;;4992560;28;20463;-51
2021/10/14 01:21:58;;;;;;;15.48;11.65;;;10.70;87.00;;;;;;4994558;28;20026;-51
2021/10/14 01:24:24;;;;;;;13.88;10.70;;;10.70;87.10;;;;;;4993622;28;20040;-51
2021/10/14 01:26:49;;;;;;;14.73;11.68;;;10.70;87.10;;;;;;4994477;28;20121;-51
2021/10/14 01:29:15;;;;;;;16.13;12.38;;;10.70;87.10;;;;;;4994174;28;20073;-51
2021/10/14 01:31:41;;;;;;;14.27;11.68;;;10.70;87.00;;;;;;4994054;28;20541;-51
2021/10/14 01:34:08;;;;;;;15.93;13.18;;;10.70;86.80;;;;;;4993975;28;20022;-51
2021/10/14 01:36:34;;;;;;;16.05;12.82;;;10.70;86.80;;;;;;4993719;28;20029;-51
2021/10/14 01:39:00;;;;;;;19.63;13.60;;;10.70;86.80;;;;;;4993629;28;20034;-51
2021/10/14 01:41:25;;;;;;;14.32;11.57;;;10.70;86.70;;;;;;4992846;28;20022;-51
2021/10/14 01:43:52;;;;;;;19.77;13.30;;;10.70;86.60;;;;;;4993880;28;20050;-51
2021/10/14 01:46:18;;;;;;;18.58;13.52;;;10.70;86.70;;;;;;4993834;28;20039;-51
2021/10/14 01:48:44;;;;;;;15.93;12.20;;;10.70;86.40;;;;;;4993900;28;20069;-51
2021/10/14 01:51:10;;;;;;;17.40;12.85;;;10.70;86.20;;;;;;4993367;28;20026;-53
2021/10/14 01:53:37;;;;;;;19.38;13.90;;;10.70;86.20;;;;;;4993372;28;20438;-51
2021/10/14 01:56:04;;;;;;;18.17;14.13;;;10.70;86.20;;;;;;4980124;28;20425;-51
2021/10/14 01:58:29;;;;;;;15.30;12.48;;;10.70;86.10;;;;;;4993347;28;20026;-51
2021/10/14 02:00:55;;;;;;;16.38;14.10;;;10.70;86.30;;;;;;4992739;28;20370;-51
2021/10/14 02:03:21;;;;;;;17.00;13.02;;;10.60;86.30;;;;;;4983014;28;20489;-51
2021/10/14 02:05:46;;;;;;;18.35;13.75;;;10.70;86.30;;;;;;4993454;28;20026;-52
2021/10/14 02:08:13;;;;;;;18.80;13.75;;;10.70;86.30;;;;;;4993389;28;20019;-51
2021/10/14 02:10:38;;;;;;;17.20;13.38;;;10.70;86.90;;;;;;4993481;28;20023;-51
2021/10/14 02:13:04;;;;;;;20.73;14.63;;;10.70;86.40;;;;;;4993017;28;20079;-51
2021/10/14 02:15:30;;;;;;;18.60;14.13;;;10.70;86.30;;;;;;4993198;28;20475;-51
2021/10/14 02:17:56;;;;;;;19.90;14.57;;;10.70;86.30;;;;;;4993647;28;20033;-51
2021/10/14 02:20:22;;;;;;;22.33;15.77;;;10.70;86.20;;;;;;4993739;28;20081;-51
2021/10/14 02:22:48;;;;;;;19.30;14.05;;;10.60;86.10;;;;;;4993449;28;20030;-51
2021/10/14 02:25:15;;;;;;;19.42;14.50;;;10.70;86.20;;;;;;4992796;28;20030;-51
2021/10/14 02:27:41;;;;;;;21.10;15.38;;;10.70;86.40;;;;;;4984792;28;20032;-51
2021/10/14 02:30:09;;;;;;;20.85;14.73;;;10.70;86.30;;;;;;4993412;28;20033;-51
2021/10/14 02:32:35;;;;;;;20.38;14.90;;;10.70;86.30;;;;;;4993386;28;20022;-51
2021/10/14 02:35:01;;;;;;;18.45;15.07;;;10.70;86.20;;;;;;4992625;28;20029;-51
2021/10/14 02:37:27;;;;;;;19.42;14.75;;;10.70;86.00;;;;;;4993554;28;20038;-51
2021/10/14 02:39:53;;;;;;;20.65;15.02;;;10.70;86.00;;;;;;4992638;28;20103;-51
2021/10/14 02:42:19;;;;;;;18.65;14.82;;;10.70;86.00;;;;;;4993083;28;20113;-51
2021/10/14 02:44:44;;;;;;;19.75;14.68;;;10.70;85.80;;;;;;4993333;28;20553;-51
2021/10/14 02:47:10;;;;;;;21.95;15.30;;;10.70;85.80;;;;;;4993270;28;20173;-51
2021/10/14 02:49:36;;;;;;;20.35;14.98;;;10.70;85.70;;;;;;4993165;28;20035;-51
2021/10/14 02:52:03;;;;;;;17.27;14.50;;;10.70;85.80;;;;;;4993155;28;20050;-50
2021/10/14 02:54:29;;;;;;;22.48;15.93;;;10.70;85.80;;;;;;4990777;28;20022;-51
2021/10/14 02:56:55;;;;;;;22.45;15.25;;;10.70;85.60;;;;;;4987709;28;20034;-51
2021/10/14 02:59:20;;;;;;;20.52;15.32;;;10.70;85.40;;;;;;4992885;28;20025;-51
2021/10/14 03:01:46;;;;;;;19.52;15.27;;;10.70;85.40;;;;;;4993157;28;20026;-51
2021/10/14 03:04:12;;;;;;;19.42;14.82;;;10.70;85.50;;;;;;4992914;28;20038;-51
2021/10/14 03:06:37;;;;;;;19.65;15.10;;;10.70;85.20;;;;;;4993017;28;20027;-51
2021/10/14 03:09:03;;;;;;;19.48;15.02;;;10.60;85.30;;;;;;4992839;28;21104;-51
2021/10/14 03:11:29;;;;;;;19.90;15.77;;;10.60;85.20;;;;;;4992306;28;20073;-51
2021/10/14 03:13:55;;;;;;;22.23;15.73;;;10.60;85.10;;;;;;4992888;28;20034;-51
2021/10/14 03:16:21;;;;;;;19.40;14.43;;;10.70;85.20;;;;;;4992998;28;20106;-51
2021/10/14 03:18:48;;;;;;;19.95;15.35;;;10.70;85.20;;;;;;4984149;28;20480;-51
2021/10/14 03:21:15;;;;;;;21.33;15.25;;;10.70;85.10;;;;;;4988836;28;20061;-51
2021/10/14 03:23:40;;;;;;;21.05;15.55;;;10.70;84.90;;;;;;4994900;28;20307;-51
2021/10/14 03:26:06;;;;;;;20.35;14.98;;;10.70;85.00;;;;;;4996639;28;20026;-51
2021/10/14 03:28:31;;;;;;;18.88;15.55;;;10.70;84.80;;;;;;4996494;28;20101;-51
2021/10/14 03:30:57;;;;;;;20.92;14.68;;;10.70;84.80;;;;;;4995847;28;20061;-51
2021/10/14 03:33:23;;;;;;;22.77;16.25;;;10.60;84.60;;;;;;4995943;28;20062;-51
2021/10/14 03:35:49;;;;;;;20.80;14.35;;;10.60;84.60;;;;;;4996520;28;20022;-51
2021/10/14 03:38:14;;;;;;;21.13;14.27;;;10.60;84.50;;;;;;4996222;28;20058;-51
2021/10/14 03:40:41;;;;;;;20.77;14.15;;;10.60;84.50;;;;;;4991686;28;20065;-51
2021/10/14 03:43:07;;;;;;;20.85;15.55;;;10.60;84.40;;;;;;4985719;28;20038;-50
2021/10/14 03:45:32;;;;;;;21.50;14.85;;;10.60;84.40;;;;;;4994000;28;20430;-51
2021/10/14 03:47:58;;;;;;;20.33;14.88;;;10.60;84.30;;;;;;4994376;28;20387;-51
2021/10/14 03:50:23;;;;;;;17.20;13.63;;;10.60;84.30;;;;;;4993900;28;20455;-51
2021/10/14 03:52:49;;;;;;;19.42;13.98;;;10.60;84.30;;;;;;4994212;28;20029;-51
2021/10/14 03:55:15;;;;;;;19.60;15.00;;;10.60;84.30;;;;;;4982264;28;20031;-51
2021/10/14 03:57:40;;;;;;;19.45;14.40;;;10.60;84.30;;;;;;4988129;28;20484;-51
2021/10/14 04:00:08;;;;;;;21.45;15.15;;;10.60;84.30;;;;;;4995332;28;20433;-51
2021/10/14 04:02:34;;;;;;;20.50;14.00;;;10.60;84.10;;;;;;4988908;28;20022;-51
2021/10/14 04:04:59;;;;;;;17.60;14.23;;;10.60;84.20;;;;;;4995273;28;20037;-51
2021/10/14 04:07:25;;;;;;;19.75;13.57;;;10.60;84.10;;;;;;4995098;28;20367;-51
2021/10/14 04:09:51;;;;;;;19.92;14.68;;;10.50;84.00;;;;;;4994956;28;20034;-51
2021/10/14 04:12:16;;;;;;;18.20;13.35;;;10.50;84.00;;;;;;4995088;28;20098;-51
2021/10/14 04:14:42;;;;;;;19.50;14.18;;;10.50;84.00;;;;;;4995253;28;20038;-51
2021/10/14 04:17:08;;;;;;;17.13;13.82;;;10.50;84.00;;;;;;4993903;28;20026;-51
2021/10/14 04:19:34;;;;;;;15.73;12.43;;;10.50;83.80;;;;;;4993607;28;20026;-51
2021/10/14 04:22:00;;;;;;;16.05;12.05;;;10.50;83.90;;;;;;4993442;28;20034;-51
2021/10/14 04:24:28;;;;;;;16.67;12.40;;;10.50;83.90;;;;;;4992910;28;20022;-52
2021/10/14 04:26:54;;;;;;;17.92;12.68;;;10.50;83.80;;;;;;4991245;28;20072;-51
2021/10/14 04:29:20;;;;;;;16.50;12.60;;;10.50;83.80;;;;;;4993477;28;20478;-51
2021/10/14 04:31:46;;;;;;;16.88;11.80;;;10.50;83.80;;;;;;4994303;28;20018;-51
2021/10/14 04:34:11;;;;;;;16.90;12.35;;;10.50;83.60;;;;;;4994600;28;20464;-51
2021/10/14 04:36:38;;;;;;;16.30;12.45;;;10.50;83.60;;;;;;4995195;28;20109;-51
2021/10/14 04:39:05;;;;;;;15.15;11.65;;;10.50;83.60;;;;;;4994052;28;20092;-51
2021/10/14 04:41:31;;;;;;;14.38;10.68;;;10.50;84.20;;;;;;4994803;28;20026;-51
2021/10/14 04:43:57;;;;;;;16.42;11.63;;;10.50;83.50;;;;;;4995057;28;20018;-51
2021/10/14 04:46:22;;;;;;;15.00;11.60;;;10.50;83.40;;;;;;4994942;28;20025;-53
2021/10/14 04:48:48;;;;;;;16.58;10.98;;;10.50;83.50;;;;;;4994847;28;20081;-51
2021/10/14 04:51:14;;;;;;;17.35;12.02;;;10.50;83.40;;;;;;4994757;28;20066;-54
2021/10/14 04:53:39;;;;;;;14.43;10.52;;;10.50;83.50;;;;;;4991497;28;20030;-51
2021/10/14 04:56:05;;;;;;;16.65;11.70;;;10.50;83.50;;;;;;4979424;28;20035;-51
2021/10/14 04:58:31;;;;;;;13.95;10.13;;;10.50;83.20;;;;;;4994216;28;20034;-51
2021/10/14 05:00:57;;;;;;;12.90;9.82;;;10.50;83.20;;;;;;4994208;28;20109;-51
2021/10/14 05:03:23;;;;;;;14.57;10.63;;;10.50;83.20;;;;;;4994686;28;20113;-51
2021/10/14 05:05:49;;;;;;;13.30;10.27;;;10.50;83.20;;;;;;4994557;28;20053;-51
2021/10/14 05:08:14;;;;;;;12.45;9.90;;;10.50;83.20;;;;;;4994362;28;20554;-52
2021/10/14 05:10:41;;;;;;;14.52;9.57;;;10.50;83.20;;;;;;4981431;28;20057;-51
2021/10/14 05:13:07;;;;;;;12.15;9.95;;;10.60;83.20;;;;;;4994306;28;20018;-51
2021/10/14 05:15:33;;;;;;;15.73;9.95;;;10.60;83.20;;;;;;4991005;28;20026;-51
2021/10/14 05:17:59;;;;;;;13.00;9.95;;;10.60;83.10;;;;;;4991045;28;20033;-51
2021/10/14 05:20:25;;;;;;;15.00;10.73;;;10.60;82.80;;;;;;4994710;28;20026;-51
2021/10/14 05:22:51;;;;;;;12.20;9.65;;;10.60;82.80;;;;;;4983092;28;20030;-51
2021/10/14 05:25:16;;;;;;;12.88;9.80;;;10.60;82.50;;;;;;4990641;28;20030;-51
2021/10/14 05:27:42;;;;;;;15.05;10.10;;;10.50;82.40;;;;;;4993359;28;20161;-51
2021/10/14 05:30:09;;;;;;;12.27;9.65;;;10.50;82.30;;;;;;4989970;28;20026;-53
2021/10/14 05:32:34;;;;;;;12.60;9.25;;;10.50;82.40;;;;;;4987946;28;20023;-51
2021/10/14 05:35:00;;;;;;;13.52;10.23;;;10.50;82.50;;;;;;4991261;28;20038;-51
2021/10/14 05:37:29;;;;;;;11.77;9.27;;;10.50;82.50;;;;;;4992097;28;20366;-51
2021/10/14 05:39:55;;;;;;;15.07;10.13;;;10.50;82.50;;;;;;4991457;28;20403;-51
2021/10/14 05:42:21;;;;;;;12.50;9.95;;;10.50;82.50;;;;;;4991863;28;20026;-51
2021/10/14 05:44:49;;;;;;;12.75;9.30;;;10.50;83.10;;;;;;4991876;28;20044;-51
2021/10/14 05:47:15;;;;;;;13.75;9.20;;;10.50;82.40;;;;;;4994250;28;20023;-51
2021/10/14 05:49:40;;;;;;;11.75;9.68;;;10.50;82.30;;;;;;4991469;28;20115;-51
2021/10/14 05:52:06;;;;;;;11.13;9.10;;;10.50;82.50;;;;;;4989905;28;20023;-51
2021/10/14 05:54:33;;;;;;;11.88;9.65;;;10.50;82.20;;;;;;4989850;28;20029;-51
2021/10/14 05:56:58;;;;;;;10.35;9.00;;;10.50;82.20;;;;;;4987111;28;20027;-51
2021/10/14 05:59:25;;;;;;;13.15;9.30;;;10.50;82.30;;;;;;4984227;28;20026;-51
2021/10/14 06:01:51;;;;;;;12.07;9.63;;;10.60;82.30;;;;;;4988858;28;20026;-51
2021/10/14 06:04:16;;;;;;;11.75;9.95;;;10.60;82.20;;;;;;4993097;28;20029;-51
2021/10/14 06:06:42;;;;;;;13.70;9.90;;;10.60;82.00;;;;;;4992978;28;20394;-51
2021/10/14 06:09:08;;;;;;;13.88;9.85;;;10.60;81.90;;;;;;4990128;28;20027;-51
2021/10/14 06:11:33;;;;;;;9.85;8.60;;;10.60;81.80;;;;;;4984910;28;20548;-50
2021/10/14 06:13:59;;;;;;;13.00;9.05;;;10.60;81.70;;;;;;4987873;28;20053;-51
2021/10/14 06:16:25;;;;;;;11.63;9.00;;;10.60;81.70;;;;;;4984928;28;20031;-51
2021/10/14 06:18:50;;;;;;;12.85;8.55;;;10.60;81.40;;;;;;4981703;28;20402;-50
2021/10/14 06:21:16;;;;;;;10.10;8.68;;;10.60;81.40;;;;;;4972698;28;20644;-50
2021/10/14 06:23:42;;;;;;;12.40;8.82;;;10.60;81.50;;;;;;4983896;28;20489;-50
2021/10/14 06:26:09;;;;;;;10.02;8.68;;;10.60;81.30;;;;;;4979923;28;20038;-53
2021/10/14 06:28:34;;;;;;;12.13;9.27;;;10.60;81.30;;;;;;4986775;28;20526;-53
2021/10/14 06:31:00;;;;;;;11.45;8.32;;;10.60;81.60;;;;;;4989883;28;20031;-51
2021/10/14 06:33:26;;;;;;;11.00;8.82;;;10.60;81.80;;;;;;4989494;28;20019;-51
2021/10/14 06:35:51;;;;;;;11.95;8.68;;;10.60;81.70;;;;;;4991310;28;20034;-51
2021/10/14 06:38:17;;;;;;;11.93;8.63;;;10.70;82.00;;;;;;4991826;28;20019;-51
2021/10/14 06:40:43;;;;;;;14.38;8.85;;;10.70;81.70;;;;;;5007109;28;20050;-51
2021/10/14 06:43:08;;;;;;;14.15;9.60;;;10.70;81.50;;;;;;5001451;28;20065;-51
2021/10/14 06:45:36;;;;;;;11.07;8.05;;;10.80;81.50;;;;;;5011506;28;20090;-52
2021/10/14 06:48:02;;;;;;;12.13;8.98;;;10.80;81.40;;;;;;5011488;28;20038;-51
2021/10/14 06:50:29;;;;;;;10.88;8.57;;;10.90;81.20;;;;;;5010702;28;20040;-54
2021/10/14 06:52:55;;;;;;;11.27;8.38;;;10.90;81.20;;;;;;5008733;28;20084;-51
2021/10/14 06:55:21;;;;;;;10.65;8.23;;;10.90;80.90;;;;;;5010818;28;20422;-51
2021/10/14 06:57:47;;;;;;;10.95;8.68;;;10.90;80.90;;;;;;5009426;28;20473;-50
2021/10/14 07:00:13;;;;;;;10.02;8.25;;;11.00;80.80;;;;;;5007485;28;20116;-51
2021/10/14 07:02:39;;;;;;;10.52;8.30;;;10.90;80.70;;;;;;5013576;28;20041;-51
2021/10/14 07:05:05;;;;;;;10.20;8.07;;;11.00;80.60;;;;;;5012164;28;20033;-51
2021/10/14 07:07:31;;;;;;;10.45;8.40;;;11.00;80.40;;;;;;5012010;28;20076;-51
2021/10/14 07:09:56;;;;;;;9.45;8.10;;;11.00;80.50;;;;;;5009272;28;20432;-51
2021/10/14 07:12:27;;;;;;;9.88;8.25;;;11.00;80.50;;;;;;5014730;28;20029;-53
2021/10/14 07:14:54;;;;;;;11.02;8.65;;;11.10;80.40;;;;;;5011665;28;20022;-51
2021/10/14 07:17:20;;;;;;;11.65;8.43;;;11.10;80.20;;;;;;5010853;28;20042;-53
2021/10/14 07:19:46;;;;;;;11.82;9.15;;;11.10;80.10;;;;;;5005594;28;20029;-54
2021/10/14 07:22:12;;;;;;;10.98;8.82;;;11.10;79.80;;;;;;5006847;28;20095;-52
2021/10/14 07:24:38;;;;;;;11.25;8.38;;;11.20;79.70;;;;;;5004863;28;20038;-53
2021/10/14 07:27:07;;;;;;;10.65;8.00;;;11.20;79.50;;;;;;5006893;28;20168;-51
2021/10/14 07:29:33;;;;;;;8.98;7.85;;;11.20;79.40;;;;;;5011397;28;20064;-51
2021/10/14 07:31:59;;;;;;;12.02;8.68;;;11.20;79.20;;;;;;5008775;28;20177;-51
2021/10/14 07:34:25;;;;;;;9.85;8.18;;;11.20;79.20;;;;;;5008436;28;20109;-52
2021/10/14 07:36:51;;;;;;;9.85;7.65;;;11.30;79.30;;;;;;5010668;28;20041;-52
2021/10/14 07:39:17;;;;;;;11.15;8.45;;;11.30;79.10;;;;;;4995642;28;20054;-54
2021/10/14 07:41:44;;;;;;;11.38;8.20;;;11.30;78.90;;;;;;4975589;28;20062;-52
2021/10/14 07:44:10;;;;;;;10.68;8.13;;;11.40;78.50;;;;;;4987882;28;20438;-52
2021/10/14 07:46:37;;;;;;;10.80;8.00;;;11.40;78.40;;;;;;4984859;28;20026;-55
2021/10/14 07:49:03;;;;;;;10.98;7.95;;;11.40;78.40;;;;;;4986170;28;20034;-52
2021/10/14 07:51:29;;;;;;;8.85;7.22;;;11.40;78.30;;;;;;4980317;28;20474;-52
2021/10/14 07:53:55;;;;;;;9.57;7.70;;;11.40;78.30;;;;;;4982310;28;20076;-52
2021/10/14 07:56:21;;;;;;;10.15;7.25;;;11.40;78.30;;;;;;4986369;28;20030;-52
2021/10/14 07:58:47;;;;;;;11.32;7.53;;;11.40;78.40;;;;;;4982623;28;20620;-51
2021/10/14 08:01:12;;;;;;;9.32;7.40;;;11.50;78.30;;;;;;4984243;28;20045;-52
2021/10/14 08:03:38;;;;;;;11.27;7.20;;;11.50;78.20;;;;;;4982736;28;20523;-53
2021/10/14 08:06:04;;;;;;;9.35;6.85;;;11.50;78.00;;;;;;4984848;28;20037;-52
2021/10/14 08:08:30;;;;;;;10.30;7.30;;;11.50;78.00;;;;;;4981387;28;20046;-55
2021/10/14 08:10:56;;;;;;;9.50;7.60;;;11.50;77.90;;;;;;4982481;28;20033;-56
2021/10/14 08:13:22;;;;;;;9.20;7.50;;;11.60;77.70;;;;;;4982037;28;20042;-51
2021/10/14 08:15:52;;;;;;;10.82;7.03;;;11.60;77.40;;;;;;4982428;28;20037;-54
2021/10/14 08:18:19;;;;;;;10.30;7.28;;;11.60;77.30;;;;;;4989272;28;20046;-53
2021/10/14 08:20:45;;;;;;;8.98;7.03;;;11.60;77.30;;;;;;4983605;28;20030;-51
2021/10/14 08:23:11;;;;;;;9.88;7.57;;;11.60;77.20;;;;;;4984286;28;20062;-54
2021/10/14 08:25:37;;;;;;;8.23;6.53;;;11.70;77.80;;;;;;4984404;28;20117;-53
2021/10/14 08:28:02;;;;;;;8.82;6.63;;;11.70;77.10;;;;;;4983399;28;20113;-52
2021/10/14 08:30:28;;;;;;;9.15;7.10;;;11.70;76.90;;;;;;4985513;28;20045;-51
2021/10/14 08:32:54;;;;;;;10.02;7.70;;;11.70;76.80;;;;;;4983957;28;20524;-51
2021/10/14 08:35:21;;;;;;;9.25;6.80;;;11.80;76.80;;;;;;4984441;28;20031;-50
2021/10/14 08:37:47;;;;;;;9.95;7.13;;;11.80;76.70;;;;;;4981132;28;20053;-50
2021/10/14 08:40:16;;;;;;;8.32;6.63;;;11.80;76.50;;;;;;4983722;28;20060;-52
2021/10/14 08:42:42;;;;;;;8.88;6.43;;;11.80;76.60;;;;;;4984493;28;20034;-51
2021/10/14 08:45:11;;;;;;;8.90;7.00;;;11.80;76.70;;;;;;4984718;28;20064;-51
2021/10/14 08:47:38;;;;;;;8.13;6.05;;;11.90;76.60;;;;;;4984593;28;20034;-51
2021/10/14 08:50:06;;;;;;;10.05;6.55;;;11.90;76.30;;;;;;4980701;28;20493;-55
2021/10/14 08:52:32;;;;;;;8.88;6.55;;;11.90;76.10;;;;;;4981414;28;20109;-51
2021/10/14 08:54:58;;;;;;;8.95;6.30;;;12.00;76.00;;;;;;4984551;28;20834;-54
2021/10/14 08:57:24;;;;;;;8.25;6.03;;;12.00;75.90;;;;;;4981380;28;20034;-51
2021/10/14 08:59:50;;;;;;;9.13;6.95;;;12.00;76.00;;;;;;4982412;28;20497;-51
2021/10/14 09:02:18;;;;;;;8.20;6.57;;;12.00;75.30;;;;;;4985276;28;20023;-51
2021/10/14 09:04:50;;;;;;;8.00;5.60;;;12.10;75.30;;;;;;4989894;28;20038;-53
2021/10/14 09:07:18;;;;;;;7.43;5.60;;;12.10;75.20;;;;;;4986129;28;20034;-52
2021/10/14 09:09:44;;;;;;;7.38;5.68;;;12.10;75.30;;;;;;4980614;28;20049;-51
2021/10/14 09:12:12;;;;;;;8.82;6.45;;;12.20;75.00;;;;;;4980126;28;20035;-51
2021/10/14 09:14:54;;;;;;;5.90;5.22;;;12.20;74.70;;;;;;4978284;28;20044;-52
2021/10/14 09:17:43;;;;;;;8.85;5.93;;;12.20;74.60;;;;;;4984061;28;20027;-51
2021/10/14 09:20:21;;;;;;;7.95;5.97;;;12.20;73.90;;;;;;4983223;28;20906;-51
2021/10/14 09:23:21;;;;;;;7.32;5.45;;;12.20;73.60;;;;;;4980589;28;20121;-51
2021/10/14 09:25:48;;;;;;;6.22;4.85;;;12.20;73.30;;;;;;4972156;28;20046;-51
2021/10/14 09:28:18;;;;;;;9.27;5.28;;;12.20;73.40;;;;;;4984206;28;20042;-51
2021/10/14 09:30:59;;;;;;;9.23;5.88;;;12.20;73.20;;;;;;4984963;28;20030;-51
2021/10/14 09:33:40;;;;;;;7.72;5.72;;;12.20;72.90;;;;;;4979995;28;20037;-51
2021/10/14 09:36:41;;;;;;;6.32;5.28;;;12.20;72.90;;;;;;4985874;28;20030;-52
2021/10/14 09:39:07;;;;;;;6.20;5.20;;;12.20;73.00;;;;;;4931877;28;20049;-54
2021/10/14 09:41:41;;;;;;;6.88;5.10;;;12.30;73.20;;;;;;4975060;28;20272;-52
2021/10/14 09:44:13;;;;;;;6.45;5.40;;;12.30;72.90;;;;;;4988426;28;20030;-54
2021/10/14 09:46:41;;;;;;;7.10;5.85;;;12.40;72.90;;;;;;4979014;28;20038;-51
2021/10/14 09:49:28;;;;;;;5.65;5.05;;;12.40;72.90;;;;;;4980150;28;20069;-53
2021/10/14 09:51:57;;;;;;;7.45;5.20;;;12.50;72.80;;;;;;4982053;28;20104;-51
2021/10/14 09:54:23;;;;;;;5.65;4.85;;;12.50;72.40;;;;;;4980592;28;20134;-51
2021/10/14 09:56:49;;;;;;;6.60;5.00;;;12.50;72.20;;;;;;4980630;28;20039;-51
2021/10/14 09:59:16;;;;;;;6.85;5.00;;;12.60;71.80;;;;;;4979030;28;20045;-52
2021/10/14 10:01:42;;;;;;;7.18;4.90;;;12.60;71.00;;;;;;4979528;28;20038;-51
2021/10/14 10:04:09;;;;;;;6.32;4.95;;;12.70;70.90;;;;;;4982626;28;20394;-53
2021/10/14 10:06:37;;;;;;;7.32;4.50;;;12.70;70.90;;;;;;4987172;28;20031;-51
2021/10/14 10:09:17;;;;;;;7.00;4.80;;;12.70;71.00;;;;;;4982220;28;20030;-51
2021/10/14 10:11:46;;;;;;;6.32;4.68;;;12.70;70.30;;;;;;4983022;28;20034;-51
2021/10/14 10:14:13;;;;;;;6.00;4.78;;;12.70;70.10;;;;;;4979340;28;20034;-51
2021/10/14 10:17:07;;;;;;;6.50;4.97;;;12.70;69.90;;;;;;4981649;28;20142;-51
2021/10/14 10:19:46;;;;;;;6.65;5.30;;;12.70;69.70;;;;;;4982496;28;20042;-52
2021/10/14 10:22:35;;;;;;;6.20;4.55;;;12.70;69.60;;;;;;4988834;28;20467;-52
2021/10/14 10:25:24;;;;;;;8.02;5.65;;;12.70;69.80;;;;;;4984811;28;20037;-51
2021/10/14 10:27:54;;;;;;;5.15;4.57;;;12.70;69.40;;;;;;4983524;28;20509;-51
2021/10/14 10:30:36;;;;;;;6.25;4.85;;;12.70;69.40;;;;;;4984956;28;20037;-51
2021/10/14 10:33:05;;;;;;;6.35;4.95;;;12.70;69.50;;;;;;4983177;28;20947;-51
2021/10/14 10:35:45;;;;;;;5.88;4.47;;;12.70;69.70;;;;;;4989512;28;20360;-54
2021/10/14 10:38:21;;;;;;;5.05;4.45;;;12.80;69.40;;;;;;4991237;28;20070;-51
2021/10/14 10:40:49;;;;;;;5.22;4.65;;;12.80;69.60;;;;;;4991009;28;21300;-51
2021/10/14 10:43:18;;;;;;;6.65;5.47;;;12.80;69.80;;;;;;4991019;28;20069;-54
2021/10/14 10:45:51;;;;;;;5.85;5.00;;;12.80;69.10;;;;;;4989586;28;20755;-51
2021/10/14 10:48:23;;;;;;;6.55;4.97;;;12.90;68.90;;;;;;4989230;28;20129;-53
2021/10/14 10:50:54;;;;;;;6.13;4.57;;;12.90;68.50;;;;;;4972156;28;20034;-52
2021/10/14 10:53:22;;;;;;;5.88;4.75;;;12.90;68.20;;;;;;4987464;28;20447;-52
2021/10/14 10:55:48;;;;;;;5.60;4.70;;;13.00;67.90;;;;;;4982427;28;20061;-51
2021/10/14 10:58:35;;;;;;;6.18;5.07;;;13.00;67.50;;;;;;4982494;28;20141;-51
2021/10/14 11:01:01;;;;;;;5.85;4.57;;;13.00;67.30;;;;;;4984172;28;20490;-52
2021/10/14 11:03:28;;;;;;;7.47;5.57;;;13.00;67.50;;;;;;4988161;28;20038;-54
2021/10/14 11:06:01;;;;;;;6.50;4.25;;;13.00;67.50;;;;;;4986402;28;20065;-51
2021/10/14 11:08:31;;;;;;;6.75;4.70;;;13.00;67.10;;;;;;4984686;28;20735;-54
2021/10/14 11:11:08;;;;;;;5.88;4.63;;;13.00;66.80;;;;;;4985155;28;20038;-52
2021/10/14 11:13:36;;;;;;;7.22;4.43;;;13.10;66.40;;;;;;4985930;28;20168;-53
2021/10/14 11:16:06;;;;;;;5.78;4.85;;;13.10;66.40;;;;;;4985698;28;20091;-53
2021/10/14 11:18:34;;;;;;;6.28;4.82;;;13.10;66.60;;;;;;4975325;28;20034;-51
2021/10/14 11:21:06;;;;;;;7.25;4.30;;;13.10;66.70;;;;;;4979936;28;20489;-51
2021/10/14 11:23:41;;;;;;;6.53;4.93;;;13.10;66.90;;;;;;4985604;28;20117;-51
2021/10/14 11:26:18;;;;;;;6.85;4.75;;;13.10;66.70;;;;;;4979817;28;20049;-54
2021/10/14 11:28:55;;;;;;;6.40;4.70;;;13.10;66.40;;;;;;4981689;28;20030;-51
2021/10/14 11:31:41;;;;;;;7.20;4.90;;;13.00;66.30;;;;;;4984834;28;20721;-51
2021/10/14 11:34:14;;;;;;;6.22;4.78;;;13.00;66.30;;;;;;4985622;28;20386;-53
2021/10/14 11:36:48;;;;;;;6.32;5.60;;;13.00;66.40;;;;;;4985331;28;20027;-51
2021/10/14 11:39:14;;;;;;;6.40;5.13;;;13.10;66.10;;;;;;4980419;28;20057;-51
2021/10/14 11:41:40;;;;;;;7.65;5.72;;;13.10;66.00;;;;;;4977675;28;20039;-52
2021/10/14 11:44:08;;;;;;;6.07;5.05;;;13.10;65.90;;;;;;4978587;28;20080;-51
2021/10/14 11:46:36;;;;;;;6.38;5.35;;;13.20;65.80;;;;;;4979750;28;20565;-51
2021/10/14 11:49:09;;;;;;;7.78;5.60;;;13.20;65.50;;;;;;4978706;28;20123;-51
2021/10/14 11:51:35;;;;;;;6.63;5.60;;;13.30;65.40;;;;;;4982557;28;20188;-51
2021/10/14 11:54:10;;;;;;;6.20;4.93;;;13.30;65.40;;;;;;4980471;28;20109;-51
2021/10/14 11:56:48;;;;;;;5.65;4.78;;;13.30;65.50;;;;;;4980067;28;20037;-51
2021/10/14 11:59:16;;;;;;;6.60;5.55;;;13.30;65.10;;;;;;4979848;28;20038;-51
2021/10/14 12:01:47;;;;;;;6.40;5.50;;;13.30;64.90;;;;;;4980792;28;20089;-52
2021/10/14 12:04:16;;;;;;;7.00;5.53;;;13.30;64.80;;;;;;4977422;28;20897;-52
2021/10/14 12:06:44;;;;;;;6.55;5.25;;;13.30;64.60;;;;;;4989013;28;20476;-51
2021/10/14 12:09:12;;;;;;;6.75;5.15;;;13.30;64.50;;;;;;4988447;28;20101;-51
2021/10/14 12:11:38;;;;;;;8.05;5.35;;;13.30;64.40;;;;;;4980014;28;20022;-51
2021/10/14 12:14:04;;;;;;;9.13;5.50;;;13.30;64.30;;;;;;4982486;28;20041;-54
2021/10/14 12:16:32;;;;;;;7.60;5.95;;;13.30;64.60;;;;;;4984062;28;20125;-51
2021/10/14 12:19:11;;;;;;;8.48;6.30;;;13.30;64.90;;;;;;4981606;28;20023;-54
2021/10/14 12:21:39;;;;;;;8.73;6.70;;;13.30;65.10;;;;;;4980700;28;20121;-53
2021/10/14 12:24:26;;;;;;;8.27;6.53;;;13.30;65.20;;;;;;4985162;28;20101;-51
2021/10/14 12:26:56;;;;;;;8.23;6.10;;;13.30;65.00;;;;;;4982439;28;20489;-51
2021/10/14 12:29:27;;;;;;;8.18;5.72;;;13.30;65.20;;;;;;4981081;28;20039;-52
2021/10/14 12:32:22;;;;;;;7.70;5.85;;;13.30;65.00;;;;;;4981493;28;20038;-51
2021/10/14 12:34:58;;;;;;;6.70;5.78;;;13.30;65.30;;;;;;4972089;28;20039;-51
2021/10/14 12:37:34;;;;;;;8.23;5.57;;;13.40;65.00;;;;;;4962090;28;20026;-51
2021/10/14 12:40:19;;;;;;;6.28;5.05;;;13.40;65.00;;;;;;4982954;28;20046;-51